Time;durP1;ratioP1;P1;durP2;ratioP2;P2;SDS_P1;SDS_P2;PMS_P1;PMS_P2;Temp;Humidity;BMP_temperature;BMP_pressure;BME280_temperature;BME280_humidity;BME280_pressure;Samples;Min_cycle;Max_cycle;Signal;HPM_P1;HPM_P2
2023/09/17 00:01:33;;;;;;;18.30;12.20;;;;;;;15.15;73.47;100096.85;217609;1257;141316;-73
2023/09/17 00:06:36;;;;;;;13.30;9.70;;;;;;;15.08;73.64;100091.58;218699;1259;142314;-72
2023/09/17 00:11:38;;;;;;;11.80;10.50;;;;;;;15.04;73.81;100094.76;217199;1257;142520;-70
2023/09/17 00:16:41;;;;;;;15.00;10.20;;;;;;;15.00;74.03;100088.23;217408;1257;141180;-71
2023/09/17 00:21:45;;;;;;;14.80;10.80;;;;;;;14.95;74.05;100087.23;218116;1257;140603;-78
2023/09/17 00:26:49;;;;;;;17.90;10.30;;;;;;;14.88;74.21;100088.93;217189;1259;143183;-72
2023/09/17 00:31:52;;;;;;;12.30;10.20;;;;;;;14.81;74.55;100083.98;217988;1258;140544;-72
2023/09/17 00:36:57;;;;;;;14.30;11.70;;;;;;;14.73;74.61;100077.73;217709;1258;142529;-73
2023/09/17 00:42:00;;;;;;;15.40;11.20;;;;;;;14.68;74.81;100077.52;218634;1257;141705;-71
2023/09/17 00:47:04;;;;;;;19.70;11.20;;;;;;;14.64;75.08;100076.41;217363;1257;140767;-70
2023/09/17 00:52:20;;;;;;;13.80;10.60;;;;;;;14.60;75.18;100073.73;217460;1259;210974;-70
2023/09/17 00:57:24;;;;;;;12.90;10.40;;;;;;;14.56;75.25;100071.59;217532;1259;144715;-71
2023/09/17 01:02:28;;;;;;;18.20;10.70;;;;;;;14.46;75.41;100072.02;218072;1257;141641;-71
2023/09/17 01:07:34;;;;;;;12.90;10.90;;;;;;;14.35;75.69;100067.54;217384;1256;140408;-71
2023/09/17 01:12:38;;;;;;;18.30;11.50;;;;;;;14.30;75.96;100059.81;217169;1262;141252;-70
2023/09/17 01:17:41;;;;;;;24.30;12.00;;;;;;;14.28;76.08;100060.95;217885;1257;142070;-69
2023/09/17 01:22:47;;;;;;;12.90;10.20;;;;;;;14.25;76.06;100057.02;217378;1257;140975;-70
2023/09/17 01:27:50;;;;;;;18.00;11.00;;;;;;;14.20;76.00;100051.90;218676;1259;141358;-70
2023/09/17 01:32:52;;;;;;;12.50;10.30;;;;;;;14.16;76.24;100048.33;217430;1261;141166;-71
2023/09/17 01:37:59;;;;;;;18.40;11.60;;;;;;;14.13;76.31;100047.27;217312;1260;140798;-70
2023/09/17 01:43:04;;;;;;;21.50;12.10;;;;;;;14.07;76.35;100043.39;219958;1259;140566;-72
2023/09/17 01:48:10;;;;;;;13.30;10.80;;;;;;;14.03;76.34;100039.08;218260;1259;142026;-73
2023/09/17 01:53:13;;;;;;;15.10;11.40;;;;;;;13.99;76.47;100037.73;219840;1261;141453;-76
2023/09/17 01:58:17;;;;;;;15.60;11.50;;;;;;;13.96;76.55;100035.16;218984;1257;141256;-75
2023/09/17 02:03:21;;;;;;;12.50;9.30;;;;;;;13.93;76.61;100035.94;217725;1258;141167;-74
2023/09/17 02:08:25;;;;;;;29.30;12.50;;;;;;;13.87;77.00;100034.41;218246;1257;139901;-70
2023/09/17 02:13:29;;;;;;;11.70;9.90;;;;;;;13.82;77.21;100037.55;218267;1259;141020;-69
2023/09/17 02:18:33;;;;;;;12.90;10.50;;;;;;;13.77;77.37;100037.55;217692;1259;140221;-70
2023/09/17 02:23:36;;;;;;;18.40;10.10;;;;;;;13.74;77.72;100038.59;218499;1258;141324;-71
2023/09/17 02:28:39;;;;;;;17.30;12.40;;;;;;;13.72;77.83;100037.49;217656;1261;140892;-71
2023/09/17 02:33:43;;;;;;;14.50;10.20;;;;;;;13.70;77.91;100034.96;217471;1258;140995;-76
2023/09/17 02:38:46;;;;;;;20.40;9.90;;;;;;;13.62;78.02;100035.21;217384;1262;141516;-79
2023/09/17 02:43:48;;;;;;;19.60;10.50;;;;;;;13.58;78.11;100032.95;217363;1261;140850;-76
2023/09/17 02:48:54;;;;;;;17.00;11.40;;;;;;;13.56;78.34;100028.36;217123;1259;140790;-77
2023/09/17 02:53:58;;;;;;;16.70;11.70;;;;;;;13.54;78.46;100025.17;217108;1262;140339;-77
2023/09/17 02:59:01;;;;;;;19.40;10.60;;;;;;;13.51;78.40;100025.29;217635;1262;141566;-80
2023/09/17 03:04:05;;;;;;;22.80;11.00;;;;;;;13.47;78.39;100022.77;217192;1262;141410;-77
2023/09/17 03:09:10;;;;;;;19.00;11.70;;;;;;;13.44;78.44;100019.96;218356;1258;141613;-87
2023/09/17 03:14:14;;;;;;;15.40;10.60;;;;;;;13.40;78.50;100014.77;217683;1258;140794;-84
2023/09/17 03:19:19;;;;;;;14.70;10.70;;;;;;;13.37;78.69;100013.07;217238;1259;140702;-74
2023/09/17 03:24:23;;;;;;;13.90;11.90;;;;;;;13.35;78.80;100005.60;217712;1260;140533;-75
2023/09/17 03:29:25;;;;;;;17.50;11.60;;;;;;;13.31;78.53;100007.83;218389;1262;140932;-77
2023/09/17 03:34:29;;;;;;;13.40;11.00;;;;;;;13.27;78.73;100009.20;217166;1258;140564;-76
2023/09/17 03:39:32;;;;;;;15.80;10.10;;;;;;;13.22;79.09;100011.06;217920;1259;140379;-75
2023/09/17 03:44:36;;;;;;;15.40;10.50;;;;;;;13.19;78.98;100009.57;217669;1259;141370;-75
2023/09/17 03:49:39;;;;;;;14.20;9.70;;;;;;;13.13;79.11;100004.88;219016;1257;140359;-78
2023/09/17 03:54:43;;;;;;;16.40;11.40;;;;;;;13.03;78.97;100007.23;220061;1257;140601;-75
2023/09/17 03:59:47;;;;;;;14.60;9.50;;;;;;;13.02;79.28;100010.59;219659;1256;140581;-74
2023/09/17 04:04:50;;;;;;;17.10;10.50;;;;;;;13.01;79.09;100009.05;217756;1262;141405;-77
2023/09/17 04:09:54;;;;;;;13.50;10.80;;;;;;;12.96;79.13;100010.16;217454;1259;140500;-76
2023/09/17 04:14:58;;;;;;;15.80;11.40;;;;;;;12.92;79.17;100011.86;217299;1262;141824;-75
2023/09/17 04:20:03;;;;;;;15.90;11.00;;;;;;;12.89;79.56;100013.57;217426;1261;140485;-75
2023/09/17 04:25:08;;;;;;;16.50;10.40;;;;;;;12.93;80.05;100014.39;217137;1262;141473;-75
2023/09/17 04:30:13;;;;;;;19.90;10.90;;;;;;;12.97;80.63;100013.49;217288;1259;143078;-72
2023/09/17 04:35:18;;;;;;;15.30;10.50;;;;;;;13.04;80.93;100012.22;217119;1262;141167;-75
2023/09/17 04:40:25;;;;;;;14.50;9.90;;;;;;;13.12;81.15;100009.35;217158;1261;141221;-73
2023/09/17 04:45:37;;;;;;;;;;;;;;;13.26;81.61;100009.73;218295;1256;140872;-74
2023/09/17 04:50:42;;;;;;;14.80;9.90;;;;;;;13.36;82.14;100010.90;217783;1259;127273;-74
2023/09/17 04:55:48;;;;;;;16.40;12.20;;;;;;;13.49;82.32;100013.92;217221;1259;141058;-74
2023/09/17 05:00:54;;;;;;;16.20;9.90;;;;;;;13.65;82.44;100014.25;217231;1258;142922;-75
2023/09/17 05:05:58;;;;;;;13.00;9.50;;;;;;;13.82;82.72;100014.35;217406;1262;140569;-75
2023/09/17 05:11:05;;;;;;;11.80;9.50;;;;;;;13.99;82.96;100018.38;218143;1259;161900;-75
2023/09/17 05:16:10;;;;;;;17.00;10.00;;;;;;;14.17;83.24;100027.43;217627;1257;141416;-75
2023/09/17 05:21:15;;;;;;;13.80;10.20;;;;;;;14.38;83.29;100030.04;218899;1261;233893;-74
2023/09/17 05:26:21;;;;;;;15.20;9.90;;;;;;;14.59;83.16;100033.85;217208;1258;140794;-75
2023/09/17 05:31:25;;;;;;;19.00;10.70;;;;;;;14.76;82.88;100043.40;217572;1262;141261;-74
2023/09/17 05:36:27;;;;;;;13.30;9.80;;;;;;;14.95;82.80;100044.65;218037;1257;140506;-75
2023/09/17 05:41:30;;;;;;;12.30;9.10;;;;;;;15.11;82.61;100043.60;219510;1258;140848;-75
2023/09/17 05:46:32;;;;;;;15.20;10.10;;;;;;;15.24;82.57;100048.75;217122;1260;220835;-74
2023/09/17 05:51:35;;;;;;;14.20;9.20;;;;;;;15.36;82.53;100053.70;217566;1259;140438;-75
2023/09/17 05:56:39;;;;;;;14.00;9.80;;;;;;;15.44;82.47;100057.54;218226;1259;140818;-74
2023/09/17 06:01:43;;;;;;;10.90;9.70;;;;;;;15.56;82.49;100061.50;217071;1262;140055;-76
2023/09/17 06:06:47;;;;;;;13.80;10.70;;;;;;;15.70;82.49;100064.11;217190;1258;140825;-77
2023/09/17 06:11:51;;;;;;;13.90;10.50;;;;;;;15.86;82.51;100064.20;216959;1260;141005;-76
2023/09/17 06:16:54;;;;;;;17.40;10.50;;;;;;;16.06;82.46;100068.80;217322;1260;140734;-75
2023/09/17 06:22:00;;;;;;;10.60;8.30;;;;;;;16.25;82.26;100071.41;217299;1262;140305;-74
2023/09/17 06:27:03;;;;;;;12.20;9.60;;;;;;;16.39;82.25;100073.77;217596;1259;141041;-76
2023/09/17 06:32:08;;;;;;;15.80;10.80;;;;;;;16.53;81.91;100075.15;217368;1259;222621;-73
2023/09/17 06:37:11;;;;;;;14.10;9.60;;;;;;;16.69;81.96;100077.75;217141;1258;141998;-75
2023/09/17 06:42:14;;;;;;;10.40;9.40;;;;;;;16.88;81.91;100078.32;217148;1262;140464;-75
2023/09/17 06:47:17;;;;;;;18.10;10.40;;;;;;;17.22;81.72;100078.98;217853;1259;140488;-75
2023/09/17 06:52:23;;;;;;;17.20;11.70;;;;;;;17.80;81.14;100083.61;217090;1257;140296;-75
2023/09/17 06:57:28;;;;;;;16.10;10.10;;;;;;;18.34;80.22;100087.23;217142;1259;141973;-75
2023/09/17 07:02:34;;;;;;;13.80;9.90;;;;;;;18.94;79.53;100092.36;217345;1262;140926;-74
2023/09/17 07:07:38;;;;;;;12.60;10.50;;;;;;;19.88;78.66;100094.45;218168;1259;139963;-74
2023/09/17 07:12:43;;;;;;;16.20;10.20;;;;;;;20.75;77.37;100087.70;217888;1262;140768;-74
2023/09/17 07:17:46;;;;;;;11.10;9.30;;;;;;;21.84;76.33;100092.83;217229;1262;140498;-73
2023/09/17 07:22:50;;;;;;;10.50;9.40;;;;;;;22.68;75.09;100094.41;217133;1259;141100;-72
2023/09/17 07:27:52;;;;;;;9.70;8.20;;;;;;;23.84;73.62;100094.39;220039;1258;142814;-73
2023/09/17 07:32:56;;;;;;;9.80;8.80;;;;;;;24.11;71.20;100098.52;217497;1260;582913;-73
2023/09/17 07:38:01;;;;;;;8.60;7.80;;;;;;;24.26;70.54;100100.17;217854;1257;140645;-70
2023/09/17 07:43:04;;;;;;;11.60;9.20;;;;;;;24.32;69.03;100099.37;218032;1257;139866;-73
2023/09/17 07:48:10;;;;;;;8.90;8.00;;;;;;;24.33;68.66;100100.27;218095;1260;139647;-72
2023/09/17 07:53:14;;;;;;;12.60;7.50;;;;;;;24.36;68.12;100101.40;217513;1262;139359;-73
2023/09/17 07:58:19;;;;;;;7.80;6.40;;;;;;;24.58;68.21;100094.34;218823;1262;141860;-73
2023/09/17 08:03:22;;;;;;;7.40;6.40;;;;;;;24.46;66.83;100099.11;217781;1257;140535;-74
2023/09/17 08:08:24;;;;;;;7.50;6.60;;;;;;;24.37;66.33;100103.02;217286;1262;139520;-73
2023/09/17 08:13:28;;;;;;;10.30;6.70;;;;;;;24.04;65.91;100094.58;218011;1262;139866;-74
2023/09/17 08:18:32;;;;;;;6.80;6.20;;;;;;;23.75;65.70;100094.98;217240;1262;139756;-72
2023/09/17 08:23:36;;;;;;;7.10;6.30;;;;;;;23.54;65.86;100097.10;217381;1262;140442;-72
2023/09/17 08:28:43;;;;;;;7.30;6.30;;;;;;;23.27;65.87;100089.40;217469;1261;141706;-74
2023/09/17 08:33:47;;;;;;;8.90;6.80;;;;;;;22.96;66.01;100090.44;217418;1258;139667;-73
2023/09/17 08:38:54;;;;;;;8.90;5.80;;;;;;;22.65;66.10;100085.31;218426;1261;140515;-74
2023/09/17 08:50:42;;;;;;;7.50;6.30;;;;;;;22.17;67.08;100088.96;217162;1257;249749;-74
2023/09/17 08:55:44;;;;;;;8.60;6.40;;;;;;;22.18;67.75;100085.36;218479;1261;141736;-74
2023/09/17 09:00:52;;;;;;;8.00;6.10;;;;;;;22.24;67.70;100086.92;217207;1257;140833;-74
2023/09/17 09:12:44;;;;;;;7.10;6.20;;;;;;;22.47;68.48;100079.91;217951;1259;140376;-73
2023/09/17 09:17:48;;;;;;;7.40;6.10;;;;;;;22.68;68.27;100076.42;218904;1257;141191;-73
2023/09/17 09:22:52;;;;;;;9.40;5.70;;;;;;;23.13;68.63;100078.07;217285;1257;142077;-71
2023/09/17 09:28:04;;;;;;;7.50;6.60;;;;;;;23.64;67.98;100078.95;219504;1257;141353;-74
2023/09/17 09:33:07;;;;;;;7.10;6.50;;;;;;;23.84;67.09;100082.27;220073;1257;141129;-74
2023/09/17 09:38:12;;;;;;;6.60;5.60;;;;;;;23.82;66.17;100081.08;219192;1262;142449;-74
2023/09/17 09:43:35;;;;;;;6.90;6.20;;;;;;;23.60;65.77;100079.92;219892;1260;141112;-74
2023/09/17 09:48:40;;;;;;;8.20;5.60;;;;;;;23.92;66.36;100078.06;218704;1259;140078;-74
2023/09/17 09:53:45;;;;;;;7.50;6.30;;;;;;;24.47;65.91;100070.57;217546;1257;141143;-72
2023/09/17 09:58:50;;;;;;;7.00;6.30;;;;;;;24.96;65.25;100064.63;217049;1263;139973;-74
2023/09/17 10:03:59;;;;;;;6.80;5.70;;;;;;;25.23;64.37;100060.30;220002;1262;139538;-74
2023/09/17 10:09:06;;;;;;;6.80;6.20;;;;;;;25.56;63.72;100060.59;220097;1260;140871;-72
2023/09/17 10:14:11;;;;;;;8.10;5.80;;;;;;;25.99;63.48;100065.90;217999;1260;141190;-74
2023/09/17 10:19:20;;;;;;;;;;;;;;;26.21;62.18;100066.55;217462;1258;139906;-74
2023/09/17 10:24:26;;;;;;;7.30;5.50;;;;;;;26.43;62.47;100065.53;217854;1258;125834;-73
2023/09/17 10:36:13;;;;;;;6.40;5.90;;;;;;;27.05;61.14;100060.51;218100;1257;139352;-73
2023/09/17 10:41:22;;;;;;;7.60;5.90;;;;;;;27.10;60.05;100059.45;217594;1257;140367;-75
2023/09/17 10:46:28;;;;;;;5.30;4.80;;;;;;;26.58;59.27;100054.55;217800;1257;140586;-76
2023/09/17 10:51:33;;;;;;;5.60;5.10;;;;;;;26.44;59.45;100052.69;217546;1262;140189;-73
2023/09/17 10:56:41;;;;;;;4.70;4.30;;;;;;;26.89;59.29;100050.67;217443;1257;140013;-76
2023/09/17 11:01:47;;;;;;;4.10;3.70;;;;;;;27.13;58.54;100045.23;217790;1260;139387;-76
2023/09/17 11:06:54;;;;;;;4.10;3.80;;;;;;;27.39;57.54;100045.89;217466;1260;141074;-77
2023/09/17 11:11:58;;;;;;;;;;;;;;;27.51;56.97;100049.05;217530;1257;141090;-77
2023/09/17 11:17:08;;;;;;;4.90;3.70;;;;;;;27.64;56.29;100048.10;217835;1257;126133;-76
2023/09/17 11:22:14;;;;;;;5.10;4.60;;;;;;;27.73;55.14;100047.38;218766;1257;140014;-77
2023/09/17 11:27:20;;;;;;;4.00;3.70;;;;;;;27.27;54.60;100049.38;220143;1257;140026;-76
2023/09/17 11:32:24;;;;;;;4.50;4.20;;;;;;;26.84;54.54;100040.20;217236;1257;140412;-73
2023/09/17 11:37:28;;;;;;;4.30;3.60;;;;;;;27.22;54.54;100039.30;219322;1257;140254;-75
2023/09/17 11:42:35;;;;;;;3.50;3.20;;;;;;;27.32;53.81;100036.43;219219;1257;140374;-74
2023/09/17 11:47:41;;;;;;;5.30;3.80;;;;;;;27.46;53.63;100037.77;219484;1257;141578;-78
2023/09/17 11:53:06;;;;;;;3.40;3.20;;;;;;;27.38;53.16;100038.75;217909;1258;140805;-77
2023/09/17 11:58:17;;;;;;;3.80;3.40;;;;;;;27.63;53.08;100036.40;217813;1257;139852;-78
2023/09/17 12:03:22;;;;;;;6.00;3.40;;;;;;;27.81;52.68;100038.32;217770;1258;139581;-81
2023/09/17 12:08:27;;;;;;;4.60;3.20;;;;;;;28.03;51.93;100039.59;217317;1257;140383;-79
2023/09/17 12:13:32;;;;;;;3.50;3.30;;;;;;;28.22;51.52;100039.52;217767;1257;139367;-76
2023/09/17 12:18:38;;;;;;;2.70;2.50;;;;;;;28.36;51.39;100040.77;217436;1257;139701;-75
2023/09/17 12:28:58;;;;;;;2.80;2.50;;;;;;;27.69;49.98;100032.08;217601;1260;139473;-76
2023/09/17 12:34:04;;;;;;;2.50;2.30;;;;;;;27.70;50.59;100022.89;218287;1257;140844;-79
2023/09/17 12:39:17;;;;;;;3.30;3.10;;;;;;;27.75;50.00;100019.03;217535;1257;139731;-76
2023/09/17 12:44:26;;;;;;;2.60;2.50;;;;;;;27.72;50.10;100022.08;217904;1257;140712;-84
2023/09/17 12:55:22;;;;;;;3.60;2.90;;;;;;;28.01;49.59;100019.86;206495;1276;984953;-77
2023/09/17 13:00:25;;;;;;;3.70;3.40;;;;;;;28.09;49.29;100015.56;215044;1276;140421;-79
2023/09/17 13:05:28;;;;;;;3.30;3.10;;;;;;;28.16;49.02;100016.33;215871;1276;140189;-74
2023/09/17 13:10:31;;;;;;;3.20;2.90;;;;;;;28.09;48.72;100009.70;215548;1277;139446;-79
2023/09/17 13:15:36;;;;;;;2.90;2.70;;;;;;;28.04;48.93;100010.63;215431;1276;140169;-80
2023/09/17 13:20:38;;;;;;;3.70;3.10;;;;;;;28.01;48.70;100006.07;215786;1276;141064;-86
2023/09/17 13:25:41;;;;;;;3.00;2.80;;;;;;;28.00;48.61;100002.36;215220;1279;140677;-80
2023/09/17 13:30:45;;;;;;;3.40;3.00;;;;;;;28.04;48.58;100003.13;215137;1276;140231;-76
2023/09/17 13:35:53;;;;;;;2.40;2.20;;;;;;;27.88;48.75;100002.86;215138;1277;139981;-80
2023/09/17 13:40:57;;;;;;;3.00;2.80;;;;;;;27.72;48.56;100002.20;215725;1276;140363;-79
2023/09/17 13:46:02;;;;;;;2.50;2.40;;;;;;;27.68;48.54;100001.20;215252;1275;139836;-80
2023/09/17 13:51:05;;;;;;;;;;;;;;;27.61;48.42;99997.77;215172;1278;139428;-85
2023/09/17 13:56:08;;;;;;;2.80;2.70;;;;;;;27.62;48.62;99997.41;215440;1278;126392;-84
2023/09/17 14:01:12;;;;;;;2.60;2.40;;;;;;;27.65;48.72;99997.43;214981;1273;140918;-86
2023/09/17 14:06:15;;;;;;;2.80;2.60;;;;;;;27.62;48.33;99994.58;215165;1276;140184;-82
2023/09/17 14:11:19;;;;;;;2.30;2.20;;;;;;;27.69;48.58;99992.64;214987;1277;140651;-81
2023/09/17 14:16:21;;;;;;;3.10;2.60;;;;;;;27.65;48.12;99991.86;214498;1276;140327;-79
2023/09/17 14:21:24;;;;;;;2.10;2.00;;;;;;;27.49;48.05;99992.91;214917;1276;139375;-80
2023/09/17 14:26:26;;;;;;;2.70;2.50;;;;;;;27.33;48.36;99998.38;214910;1276;140150;-79
2023/09/17 14:31:30;;;;;;;2.90;2.70;;;;;;;27.21;48.60;99997.95;214847;1276;138743;-84
2023/09/17 14:43:01;;;;;;;3.20;2.90;;;;;;;26.93;49.47;99995.36;215199;1277;139350;-90
2023/09/17 14:54:05;;;;;;;2.60;2.40;;;;;;;26.70;49.97;100001.39;214885;1277;140103;-82
2023/09/17 14:59:09;;;;;;;3.00;2.70;;;;;;;26.67;49.77;100003.77;215154;1277;140325;-83
2023/09/17 15:04:56;;;;;;;3.50;2.60;;;;;;;26.55;49.62;100003.45;215513;1276;244725;-82
2023/09/17 15:10:00;;;;;;;8.20;2.50;;;;;;;26.39;49.62;100004.88;214753;1279;140417;-80
2023/09/17 15:15:06;;;;;;;3.70;3.30;;;;;;;26.15;50.05;100007.69;215631;1275;139656;-82
2023/09/17 15:54:20;;;;;;;7.70;2.90;;;;;;;24.78;54.77;100004.45;215457;1279;140949;-80
2023/09/17 16:00:05;;;;;;;3.10;2.90;;;;;;;24.58;55.53;100006.06;215057;1276;139457;-76
2023/09/17 16:05:23;;;;;;;3.30;3.10;;;;;;;24.33;56.52;100002.44;215131;1279;141135;-81
2023/09/17 16:16:16;;;;;;;6.90;3.80;;;;;;;23.90;58.13;100004.58;214019;1279;975810;-79
2023/09/17 16:21:20;;;;;;;8.00;4.00;;;;;;;23.70;58.58;100009.88;214905;1276;140189;-72
2023/09/17 16:26:23;;;;;;;11.10;3.80;;;;;;;23.51;59.36;100009.17;215631;1276;140159;-77
2023/09/17 16:31:26;;;;;;;4.40;3.50;;;;;;;23.34;59.92;100007.67;215174;1276;141110;-81
2023/09/17 16:36:30;;;;;;;4.30;3.90;;;;;;;23.15;60.23;100008.57;214773;1279;140591;-81
2023/09/17 16:41:33;;;;;;;4.70;4.30;;;;;;;22.96;60.81;100010.09;214919;1279;141135;-75
2023/09/17 16:46:36;;;;;;;42.70;7.80;;;;;;;22.78;61.22;100009.73;214928;1279;141151;-82
2023/09/17 16:51:43;;;;;;;4.50;3.60;;;;;;;22.63;61.67;100010.59;215116;1279;140857;-74
2023/09/17 16:56:51;;;;;;;6.50;3.60;;;;;;;22.44;62.11;100012.21;215276;1279;140535;-72
2023/09/17 17:01:54;;;;;;;7.50;4.30;;;;;;;22.16;62.12;100010.55;215555;1278;140107;-71
2023/09/17 17:07:00;;;;;;;3.90;2.90;;;;;;;21.77;62.40;100016.38;216154;1276;151882;-77
2023/09/17 17:12:14;;;;;;;4.10;3.80;;;;;;;21.47;63.11;100016.97;215575;1276;140284;-78
2023/09/17 17:17:17;;;;;;;5.80;3.90;;;;;;;21.21;63.76;100016.03;215809;1275;140348;-78
2023/09/17 17:22:20;;;;;;;4.00;3.40;;;;;;;21.00;64.31;100018.82;216335;1276;140862;-72
2023/09/17 17:27:23;;;;;;;4.30;3.60;;;;;;;20.74;64.79;100020.91;215736;1276;141828;-79
2023/09/17 17:32:27;;;;;;;4.30;3.80;;;;;;;20.53;65.39;100017.06;215593;1276;141019;-72
2023/09/17 17:37:37;;;;;;;5.20;4.70;;;;;;;20.40;66.18;100013.20;215467;1279;140516;-67
2023/09/17 17:42:43;;;;;;;5.80;4.10;;;;;;;20.37;66.55;100015.12;215093;1275;141387;-69
2023/09/17 17:47:46;;;;;;;4.80;4.20;;;;;;;20.33;66.75;100015.10;215316;1275;140560;-70
2023/09/17 17:52:50;;;;;;;4.60;4.20;;;;;;;20.20;66.83;100015.01;214641;1278;139966;-67
2023/09/17 17:57:53;;;;;;;4.90;4.50;;;;;;;20.02;67.06;100014.88;214815;1275;140736;-74
2023/09/17 18:02:56;;;;;;;5.50;5.00;;;;;;;19.87;67.45;100016.19;214713;1276;141072;-67
2023/09/17 18:08:00;;;;;;;7.40;5.00;;;;;;;19.64;67.77;100021.42;214711;1275;140988;-67
2023/09/17 18:13:02;;;;;;;7.30;5.10;;;;;;;19.53;68.47;100027.40;215526;1276;140936;-67
2023/09/17 18:18:07;;;;;;;5.30;4.40;;;;;;;19.38;68.55;100030.39;214966;1276;141380;-72
2023/09/17 18:23:10;;;;;;;5.50;5.00;;;;;;;19.13;68.82;100030.84;215566;1276;141633;-71
2023/09/17 18:28:19;;;;;;;5.50;5.00;;;;;;;18.92;69.51;100032.80;215293;1279;140859;-71
2023/09/17 18:33:23;;;;;;;7.90;5.60;;;;;;;18.75;69.95;100036.27;215211;1275;141576;-69
2023/09/17 18:38:26;;;;;;;5.70;5.20;;;;;;;18.62;70.31;100040.63;214899;1279;141823;-71
2023/09/17 18:43:29;;;;;;;4.80;4.40;;;;;;;18.59;70.78;100042.38;214453;1279;141018;-69
2023/09/17 18:48:33;;;;;;;6.80;5.50;;;;;;;18.51;70.61;100046.83;215947;1275;140272;-71
2023/09/17 18:53:36;;;;;;;6.90;6.00;;;;;;;18.31;70.75;100046.55;215397;1275;139906;-73
2023/09/17 18:58:38;;;;;;;5.80;5.40;;;;;;;18.14;71.25;100046.33;217181;1276;140249;-69
2023/09/17 19:03:41;;;;;;;6.00;4.90;;;;;;;18.02;71.65;100042.98;216592;1275;140889;-73
2023/09/17 19:08:44;;;;;;;6.50;5.40;;;;;;;17.87;72.05;100042.02;215635;1276;141988;-67
2023/09/17 19:13:46;;;;;;;9.70;5.70;;;;;;;17.80;72.54;100044.13;215254;1276;140322;-67
2023/09/17 19:18:48;;;;;;;6.10;5.00;;;;;;;17.82;72.73;100046.70;215525;1276;140482;-68
2023/09/17 19:23:53;;;;;;;5.10;4.40;;;;;;;17.79;72.68;100045.52;215616;1275;139916;-73
2023/09/17 19:28:57;;;;;;;5.90;5.00;;;;;;;17.73;72.69;100046.26;216233;1275;140770;-68
2023/09/17 19:34:00;;;;;;;5.50;4.40;;;;;;;17.62;72.57;100044.88;215042;1276;395846;-77
2023/09/17 19:39:03;;;;;;;8.00;4.90;;;;;;;17.45;72.76;100042.14;215197;1276;141941;-70
2023/09/17 19:44:07;;;;;;;5.60;5.10;;;;;;;17.30;72.84;100035.48;215921;1276;141803;-70
2023/09/17 19:49:10;;;;;;;5.80;5.00;;;;;;;17.11;73.15;100034.80;214821;1276;141235;-69
2023/09/17 19:54:12;;;;;;;7.10;5.10;;;;;;;17.02;73.93;100028.08;215000;1279;141984;-68
2023/09/17 19:59:15;;;;;;;5.50;5.00;;;;;;;17.00;73.83;100022.42;215292;1279;140311;-70
2023/09/17 20:04:18;;;;;;;6.40;5.70;;;;;;;16.87;73.99;100017.24;214581;1279;140235;-68
2023/09/17 20:09:20;;;;;;;6.80;5.20;;;;;;;16.76;74.30;100019.41;215102;1279;139959;-69
2023/09/17 20:14:26;;;;;;;6.30;5.70;;;;;;;16.71;74.96;100020.91;215329;1276;140150;-69
2023/09/17 20:19:30;;;;;;;6.00;5.20;;;;;;;16.72;75.27;100013.64;216155;1276;141009;-69
2023/09/17 20:24:33;;;;;;;7.90;5.80;;;;;;;16.78;75.32;100013.27;215882;1276;141932;-69
2023/09/17 20:29:36;;;;;;;6.20;5.60;;;;;;;16.82;75.53;100011.48;214633;1276;140958;-72
2023/09/17 20:34:39;;;;;;;9.80;5.40;;;;;;;16.85;75.60;100011.70;214768;1276;140277;-70
2023/09/17 20:39:41;;;;;;;7.80;5.60;;;;;;;16.87;75.59;100014.92;215518;1276;140933;-72
2023/09/17 20:44:45;;;;;;;14.40;6.60;;;;;;;16.84;75.73;100016.75;214826;1277;141156;-72
2023/09/17 20:49:47;;;;;;;7.40;6.30;;;;;;;16.81;75.88;100014.88;217462;1275;141188;-76
2023/09/17 20:54:49;;;;;;;7.00;5.60;;;;;;;16.82;75.91;100010.89;215624;1276;141432;-79
2023/09/17 20:59:52;;;;;;;12.40;5.80;;;;;;;16.79;75.87;100012.34;216289;1276;141736;-77
2023/09/17 21:04:59;;;;;;;8.10;5.60;;;;;;;16.69;75.71;100002.48;215951;1276;141159;-76
2023/09/17 21:10:02;;;;;;;6.00;5.40;;;;;;;16.65;75.79;100004.30;216761;1275;141100;-76
2023/09/17 21:15:06;;;;;;;7.80;5.30;;;;;;;16.61;76.01;99994.91;217203;1275;140779;-73
2023/09/17 21:20:11;;;;;;;6.20;5.60;;;;;;;16.56;75.89;99995.11;215050;1275;140298;-72
2023/09/17 21:25:15;;;;;;;9.80;5.20;;;;;;;16.48;75.72;99995.82;215163;1275;141646;-69
2023/09/17 21:30:18;;;;;;;8.10;6.20;;;;;;;16.36;75.75;99994.98;216148;1276;141247;-70
2023/09/17 21:35:21;;;;;;;11.70;6.60;;;;;;;16.25;75.85;99997.75;214643;1279;140265;-69
2023/09/17 21:40:25;;;;;;;6.10;5.60;;;;;;;16.20;76.19;99994.69;215557;1276;141076;-68
2023/09/17 21:45:29;;;;;;;7.40;5.30;;;;;;;16.08;75.98;99996.05;214799;1276;142355;-75
2023/09/17 21:50:33;;;;;;;8.10;5.80;;;;;;;15.96;76.48;99995.35;215380;1276;141530;-69
2023/09/17 21:55:36;;;;;;;6.10;5.50;;;;;;;15.89;76.64;99989.91;215446;1277;140893;-68
2023/09/17 22:00:41;;;;;;;7.00;5.20;;;;;;;15.84;76.91;99984.04;214866;1275;140776;-71
2023/09/17 22:05:46;;;;;;;7.10;5.40;;;;;;;15.82;77.03;99978.60;214504;1279;141144;-70
2023/09/17 22:10:49;;;;;;;6.60;5.20;;;;;;;15.78;77.14;99978.52;214683;1279;141452;-71
2023/09/17 22:15:52;;;;;;;4.70;4.40;;;;;;;15.73;77.01;99975.49;215021;1275;140004;-70
2023/09/17 22:21:12;;;;;;;6.90;5.00;;;;;;;15.57;76.78;99976.86;214802;1279;140648;-71
2023/09/17 22:26:15;;;;;;;5.90;5.30;;;;;;;15.48;77.48;99972.73;215227;1276;140142;-71
2023/09/17 22:31:18;;;;;;;6.20;5.30;;;;;;;15.49;77.84;99974.81;214609;1276;140421;-72
2023/09/17 22:36:22;;;;;;;9.50;6.50;;;;;;;15.50;77.99;99972.84;214433;1277;140926;-72
2023/09/17 22:41:26;;;;;;;5.50;4.70;;;;;;;15.46;77.93;99971.25;214935;1275;141763;-71
2023/09/17 22:46:30;;;;;;;6.10;5.50;;;;;;;15.45;78.23;99972.70;216919;1275;140745;-69
2023/09/17 22:51:35;;;;;;;6.80;6.10;;;;;;;15.42;77.97;99976.16;215448;1276;139988;-70
2023/09/17 22:56:39;;;;;;;7.20;6.20;;;;;;;15.38;77.99;99971.52;217014;1276;140360;-69
2023/09/17 23:01:43;;;;;;;11.60;7.50;;;;;;;15.35;78.17;99964.14;216155;1279;140402;-69
2023/09/17 23:06:47;;;;;;;8.60;6.00;;;;;;;15.30;78.15;99958.54;215768;1276;140363;-69
2023/09/17 23:11:50;;;;;;;9.20;6.50;;;;;;;15.22;78.09;99958.02;215142;1275;140450;-70
2023/09/17 23:16:53;;;;;;;7.60;6.60;;;;;;;15.11;78.28;99953.91;216207;1276;140769;-69
2023/09/17 23:21:57;;;;;;;9.90;6.50;;;;;;;15.08;78.58;99955.88;215725;1276;142282;-70
2023/09/17 23:27:06;;;;;;;7.70;6.60;;;;;;;15.08;78.94;99950.89;215389;1276;140497;-69
2023/09/17 23:32:13;;;;;;;6.40;5.00;;;;;;;15.03;78.69;99957.08;215194;1276;140325;-72
2023/09/17 23:37:19;;;;;;;12.50;5.90;;;;;;;14.91;78.67;99961.57;215014;1278;140782;-77
2023/09/17 23:42:22;;;;;;;5.80;5.20;;;;;;;14.89;79.08;99961.71;215140;1279;140310;-73
2023/09/17 23:47:25;;;;;;;5.70;5.10;;;;;;;14.92;79.31;99958.30;214827;1276;140374;-72
2023/09/17 23:52:29;;;;;;;6.50;5.50;;;;;;;14.92;79.45;99953.69;214758;1276;144256;-72
2023/09/17 23:57:32;;;;;;;5.20;4.70;;;;;;;14.89;79.57;99957.48;215032;1276;139894;-73
